Time;durP1;ratioP1;P1;durP2;ratioP2;P2;SDS_P1;SDS_P2;PMS_P1;PMS_P2;Temp;Humidity;BMP_temperature;BMP_pressure;BME280_temperature;BME280_humidity;BME280_pressure;Samples;Min_cycle;Max_cycle;Signal;HPM_P1;HPM_P2
2021/06/16 00:01:48;;;;;;;8.93;5.57;;;;;;;19.24;62.44;96318.75;5013551;28;20053;-75
2021/06/16 00:04:14;;;;;;;9.65;5.15;;;;;;;19.22;62.33;96319.13;5012986;28;20038;-75
2021/06/16 00:06:42;;;;;;;9.30;5.32;;;;;;;19.22;62.29;96321.09;5013133;28;20046;-75
2021/06/16 00:09:09;;;;;;;13.48;5.88;;;;;;;19.21;62.18;96313.97;5013080;28;20042;-75
2021/06/16 00:11:36;;;;;;;9.77;5.10;;;;;;;19.17;62.54;96313.16;5013483;28;20046;-74
2021/06/16 00:14:03;;;;;;;10.15;5.50;;;;;;;19.13;62.76;96313.09;5012940;28;20041;-75
2021/06/16 00:16:30;;;;;;;10.02;5.75;;;;;;;19.06;63.49;96315.78;5012344;28;20045;-76
2021/06/16 00:18:57;;;;;;;10.18;5.70;;;;;;;19.01;63.85;96311.38;5013250;28;20050;-75
2021/06/16 00:21:23;;;;;;;12.13;4.93;;;;;;;18.97;63.16;96318.78;5012855;28;20401;-75
2021/06/16 00:23:51;;;;;;;8.77;5.28;;;;;;;18.95;63.23;96323.91;5013139;28;20041;-75
2021/06/16 00:26:17;;;;;;;11.55;5.20;;;;;;;18.96;63.61;96319.97;5012556;28;20489;-75
2021/06/16 00:28:44;;;;;;;11.32;5.68;;;;;;;18.96;63.40;96324.69;5012949;28;20516;-75
2021/06/16 00:31:11;;;;;;;10.48;5.10;;;;;;;18.92;63.51;96324.63;5012619;28;20046;-77
2021/06/16 00:33:37;;;;;;;10.63;5.43;;;;;;;18.90;63.81;96321.47;5012982;28;20049;-75
2021/06/16 00:36:05;;;;;;;7.97;5.25;;;;;;;18.85;63.97;96324.53;5012459;28;20045;-77
2021/06/16 00:38:31;;;;;;;10.98;5.35;;;;;;;18.85;63.91;96321.78;5013147;28;20044;-75
2021/06/16 00:40:59;;;;;;;9.55;4.70;;;;;;;18.84;63.56;96317.41;5012730;28;20042;-76
2021/06/16 00:43:26;;;;;;;11.50;4.82;;;;;;;18.82;63.69;96322.53;5012040;28;20038;-76
2021/06/16 00:45:52;;;;;;;8.25;4.82;;;;;;;18.78;63.43;96318.91;5012669;28;20046;-75
2021/06/16 00:48:19;;;;;;;9.25;4.85;;;;;;;18.73;63.57;96319.22;5012101;28;20057;-75
2021/06/16 00:50:46;;;;;;;9.50;5.03;;;;;;;18.65;63.88;96331.31;5012588;28;20737;-75
2021/06/16 00:53:12;;;;;;;8.23;5.03;;;;;;;18.56;64.40;96328.78;5012152;28;20046;-75
2021/06/16 00:55:40;;;;;;;11.75;5.30;;;;;;;18.49;65.05;96323.97;5012446;28;20512;-75
2021/06/16 00:58:10;;;;;;;13.13;5.82;;;;;;;18.45;65.17;96328.63;5011786;28;20049;-75
2021/06/16 01:00:41;;;;;;;9.30;5.18;;;;;;;18.40;65.85;96326.19;5012323;28;20048;-75
2021/06/16 01:03:13;;;;;;;12.40;5.30;;;;;;;18.41;65.11;96330.53;5011561;28;20038;-74
2021/06/16 01:05:42;;;;;;;10.18;5.35;;;;;;;18.41;64.96;96327.78;5012325;28;20077;-75
2021/06/16 01:08:09;;;;;;;12.35;5.38;;;;;;;18.40;64.67;96320.66;5011684;28;20038;-75
2021/06/16 01:10:41;;;;;;;12.02;5.88;;;;;;;18.37;64.69;96320.59;5012132;28;20099;-75
2021/06/16 01:13:18;;;;;;;11.17;5.30;;;;;;;18.31;65.33;96324.84;5012001;28;20438;-75
2021/06/16 01:15:53;;;;;;;9.88;6.15;;;;;;;18.26;65.22;96323.19;5012133;28;20049;-75
2021/06/16 01:18:21;;;;;;;12.45;6.07;;;;;;;18.24;65.85;96323.56;5011679;28;20053;-75
2021/06/16 01:20:49;;;;;;;10.80;5.63;;;;;;;18.20;65.67;96327.41;5012032;28;20048;-75
2021/06/16 01:23:41;;;;;;;9.23;5.68;;;;;;;18.18;65.63;96325.03;5011631;28;20077;-75
2021/06/16 01:26:30;;;;;;;8.85;5.57;;;;;;;18.19;66.01;96325.84;5011539;28;20041;-75
2021/06/16 01:29:02;;;;;;;8.23;4.80;;;;;;;18.23;65.22;96323.94;5009705;28;20042;-75
2021/06/16 01:31:30;;;;;;;7.35;4.80;;;;;;;18.22;65.21;96314.09;5011684;28;20064;-75
2021/06/16 01:33:58;;;;;;;11.02;5.25;;;;;;;18.20;65.78;96319.94;5011794;28;20492;-74
2021/06/16 01:36:26;;;;;;;9.43;5.05;;;;;;;18.18;66.14;96313.22;5011219;28;20046;-75
2021/06/16 01:38:55;;;;;;;12.15;5.68;;;;;;;18.16;66.00;96310.03;5012035;28;20048;-77
2021/06/16 01:41:23;;;;;;;8.55;5.15;;;;;;;18.14;65.79;96312.34;5011195;28;22676;-76
2021/06/16 01:43:52;;;;;;;8.65;5.53;;;;;;;18.11;65.62;96313.88;5011779;28;20050;-77
2021/06/16 01:46:20;;;;;;;10.63;5.45;;;;;;;18.12;66.14;96306.44;5011287;28;20073;-77
2021/06/16 01:48:48;;;;;;;10.15;5.57;;;;;;;18.07;66.30;96315.00;5011526;28;20061;-77
2021/06/16 01:51:16;;;;;;;8.48;5.50;;;;;;;18.05;65.81;96314.56;5011237;28;20053;-77
2021/06/16 01:53:43;;;;;;;8.30;5.47;;;;;;;18.03;65.73;96311.38;5011536;28;20072;-77
2021/06/16 01:56:10;;;;;;;9.20;5.20;;;;;;;17.98;65.73;96313.28;5011141;28;20053;-77
2021/06/16 01:58:38;;;;;;;9.98;5.13;;;;;;;17.96;65.71;96304.59;5011539;28;20424;-77
2021/06/16 02:01:06;;;;;;;11.70;5.93;;;;;;;17.92;65.96;96312.00;5010955;28;20042;-76
2021/06/16 02:03:33;;;;;;;10.40;5.78;;;;;;;17.89;66.08;96315.47;5011534;28;20041;-78
2021/06/16 02:06:00;;;;;;;8.35;5.20;;;;;;;17.85;65.78;96314.59;5011199;28;20042;-76
2021/06/16 02:08:29;;;;;;;9.55;5.80;;;;;;;17.81;65.34;96322.03;5010901;28;20041;-77
2021/06/16 02:10:57;;;;;;;8.63;5.00;;;;;;;17.74;65.47;96316.38;5011256;28;20046;-77
2021/06/16 02:13:28;;;;;;;10.48;5.40;;;;;;;17.72;65.64;96310.41;5010640;28;20045;-77
2021/06/16 02:16:00;;;;;;;10.30;5.18;;;;;;;17.65;65.88;96315.78;5011420;28;20053;-77
2021/06/16 02:18:30;;;;;;;8.32;4.90;;;;;;;17.57;65.78;96319.56;5010737;28;20038;-77
2021/06/16 02:20:58;;;;;;;10.40;5.57;;;;;;;17.48;65.78;96312.31;5011222;28;20046;-75
2021/06/16 02:23:24;;;;;;;7.25;5.38;;;;;;;17.48;66.09;96312.31;5010942;28;20049;-75
2021/06/16 02:25:51;;;;;;;9.73;5.72;;;;;;;17.48;66.01;96315.06;5011091;28;20038;-74
2021/06/16 02:28:18;;;;;;;13.55;5.63;;;;;;;17.48;66.31;96317.81;5010445;28;20049;-74
2021/06/16 02:30:44;;;;;;;9.20;5.15;;;;;;;17.54;66.09;96317.53;5011092;28;20048;-74
2021/06/16 02:33:12;;;;;;;12.70;5.57;;;;;;;17.57;65.79;96317.59;5010548;28;20046;-76
2021/06/16 02:35:39;;;;;;;10.57;6.03;;;;;;;17.54;66.27;96317.53;5011112;28;20057;-76
2021/06/16 02:38:10;;;;;;;8.73;5.25;;;;;;;17.52;66.09;96320.66;5010944;28;20049;-75
2021/06/16 02:40:40;;;;;;;11.13;5.57;;;;;;;17.51;65.66;96318.25;5013892;28;20405;-75
2021/06/16 02:43:08;;;;;;;9.98;5.40;;;;;;;17.51;66.20;96318.25;5014711;28;20045;-75
2021/06/16 02:45:36;;;;;;;11.30;5.05;;;;;;;17.48;66.42;96319.78;5015076;28;20053;-76
2021/06/16 02:48:04;;;;;;;9.63;4.72;;;;;;;17.47;66.16;96307.97;5014814;28;20050;-75
2021/06/16 02:50:32;;;;;;;8.38;5.03;;;;;;;17.47;66.41;96316.22;5015022;28;20094;-77
2021/06/16 02:53:03;;;;;;;8.30;5.28;;;;;;;17.45;66.11;96324.06;5015046;28;20041;-76
2021/06/16 02:55:31;;;;;;;8.75;4.50;;;;;;;17.45;66.31;96321.31;5014774;28;20046;-75
2021/06/16 02:57:58;;;;;;;8.70;5.35;;;;;;;17.44;65.91;96319.72;5014907;28;20143;-76
2021/06/16 03:00:26;;;;;;;9.32;5.20;;;;;;;17.40;67.13;96324.34;5014352;28;20042;-75
2021/06/16 03:02:53;;;;;;;10.75;5.80;;;;;;;17.38;66.61;96321.19;5014778;28;20045;-75
2021/06/16 03:05:23;;;;;;;12.07;5.85;;;;;;;17.37;66.61;96321.53;5014043;28;20046;-75
2021/06/16 03:07:55;;;;;;;8.90;5.20;;;;;;;17.35;66.79;96321.88;5014704;28;20497;-75
2021/06/16 03:10:24;;;;;;;10.13;5.22;;;;;;;17.33;66.97;96324.22;5014051;28;20046;-75
2021/06/16 03:12:53;;;;;;;7.00;4.85;;;;;;;17.28;66.18;96321.75;5014648;28;20045;-75
2021/06/16 03:15:20;;;;;;;8.52;4.60;;;;;;;17.19;65.80;96318.41;5014027;28;20524;-75
2021/06/16 03:17:48;;;;;;;10.95;6.15;;;;;;;17.16;66.07;96314.41;5014540;28;20049;-75
2021/06/16 03:20:18;;;;;;;8.63;5.00;;;;;;;17.22;66.01;96323.19;5013785;28;20053;-75
2021/06/16 03:22:46;;;;;;;9.80;5.10;;;;;;;17.24;66.01;96320.88;5014548;28;20046;-75
2021/06/16 03:25:15;;;;;;;9.45;5.00;;;;;;;17.22;65.89;96329.47;5013786;28;20042;-75
2021/06/16 03:27:43;;;;;;;8.80;5.47;;;;;;;17.21;66.22;96327.09;5014231;28;20497;-75
2021/06/16 03:30:11;;;;;;;8.93;5.22;;;;;;;17.20;66.37;96322.75;5013526;28;20050;-75
2021/06/16 03:32:38;;;;;;;8.80;5.20;;;;;;;17.21;66.23;96327.88;5014110;28;20459;-75
2021/06/16 03:35:06;;;;;;;10.57;5.50;;;;;;;17.19;66.31;96334.94;5013653;28;20049;-74
2021/06/16 03:37:33;;;;;;;7.40;4.63;;;;;;;17.17;66.20;96331.72;5014191;28;20068;-75
2021/06/16 03:40:01;;;;;;;9.45;4.93;;;;;;;17.10;66.44;96335.13;5014193;28;20056;-75
2021/06/16 03:42:33;;;;;;;7.40;4.57;;;;;;;17.08;67.08;96333.91;5013689;28;20058;-75
2021/06/16 03:45:03;;;;;;;10.63;5.65;;;;;;;17.08;67.27;96328.41;5014092;28;20065;-74
2021/06/16 03:47:31;;;;;;;9.27;5.13;;;;;;;17.08;67.26;96328.41;5013738;28;20042;-76
2021/06/16 03:49:59;;;;;;;10.52;5.40;;;;;;;17.10;66.88;96326.06;5013866;28;20046;-75
2021/06/16 03:52:27;;;;;;;11.02;5.20;;;;;;;17.12;67.18;96329.25;5012033;28;20506;-75
2021/06/16 03:54:55;;;;;;;8.98;5.32;;;;;;;17.15;67.20;96332.09;5013821;28;20045;-75
2021/06/16 03:57:22;;;;;;;11.63;6.38;;;;;;;17.16;67.66;96327.38;5013374;28;20057;-75
2021/06/16 03:59:50;;;;;;;11.93;6.45;;;;;;;17.20;67.46;96336.50;5013494;28;20038;-76
2021/06/16 04:02:18;;;;;;;9.40;5.13;;;;;;;17.27;67.33;96341.38;5013053;28;20556;-75
2021/06/16 04:04:46;;;;;;;10.18;5.25;;;;;;;17.33;66.23;96340.72;5013644;28;20057;-75
2021/06/16 04:07:15;;;;;;;10.77;5.30;;;;;;;17.37;67.03;96336.06;5012961;28;20069;-75
2021/06/16 04:09:43;;;;;;;9.27;5.50;;;;;;;17.40;67.19;96338.13;5013398;28;20042;-75
2021/06/16 04:12:10;;;;;;;10.30;5.53;;;;;;;17.44;67.05;96333.50;5012937;28;20046;-76
2021/06/16 04:14:38;;;;;;;9.50;6.05;;;;;;;17.48;67.13;96337.09;5013285;28;20049;-75
2021/06/16 04:17:06;;;;;;;9.60;5.60;;;;;;;17.53;67.27;96332.44;5012980;28;20585;-75
2021/06/16 04:19:33;;;;;;;11.10;5.60;;;;;;;17.59;66.86;96345.59;5013378;28;20460;-76
2021/06/16 04:22:00;;;;;;;11.23;5.65;;;;;;;17.63;67.25;96342.88;5013267;28;20045;-75
2021/06/16 04:24:26;;;;;;;12.35;6.18;;;;;;;17.66;67.79;96344.91;5012554;28;20050;-76
2021/06/16 04:26:53;;;;;;;9.80;5.78;;;;;;;17.68;67.82;96339.81;5013327;28;20049;-75
2021/06/16 04:29:19;;;;;;;15.23;6.05;;;;;;;17.72;67.65;96332.44;5012316;28;20049;-75
2021/06/16 04:31:46;;;;;;;8.60;5.70;;;;;;;17.74;67.96;96332.88;5013215;28;20053;-75
2021/06/16 04:34:14;;;;;;;9.77;5.88;;;;;;;17.76;67.73;96325.06;5012343;28;20112;-75
2021/06/16 04:36:40;;;;;;;13.43;6.07;;;;;;;17.80;67.57;96327.88;5012917;28;20052;-74
2021/06/16 04:39:08;;;;;;;10.38;5.35;;;;;;;17.85;67.33;96331.13;5012360;28;20041;-75
2021/06/16 04:41:34;;;;;;;9.57;6.10;;;;;;;17.89;66.77;96329.25;5012592;28;20041;-74
2021/06/16 04:44:01;;;;;;;11.63;5.47;;;;;;;17.90;67.06;96330.81;5012843;28;20485;-75
2021/06/16 04:46:28;;;;;;;9.65;5.72;;;;;;;17.93;67.60;96324.59;5012618;28;20053;-74
2021/06/16 04:48:54;;;;;;;9.68;5.72;;;;;;;17.97;67.62;96327.44;5012696;28;20046;-75
2021/06/16 04:51:22;;;;;;;11.82;6.20;;;;;;;18.02;67.72;96326.34;5012142;28;20053;-75
2021/06/16 04:53:49;;;;;;;13.00;6.10;;;;;;;18.05;67.69;96320.06;5012591;28;20069;-75
2021/06/16 04:56:15;;;;;;;11.52;6.10;;;;;;;18.08;67.60;96319.34;5012046;28;20674;-74
2021/06/16 04:58:42;;;;;;;12.45;5.95;;;;;;;18.11;67.23;96318.59;5012272;28;20050;-75
2021/06/16 05:01:09;;;;;;;8.73;6.13;;;;;;;18.17;67.31;96317.16;5011993;28;20049;-74
2021/06/16 05:03:36;;;;;;;10.98;5.95;;;;;;;18.22;67.64;96319.59;5011997;28;20058;-76
2021/06/16 05:06:03;;;;;;;11.00;6.40;;;;;;;18.28;67.52;96317.31;5011843;28;20046;-75
2021/06/16 05:08:31;;;;;;;11.30;6.43;;;;;;;18.33;67.54;96320.56;5012302;28;20056;-75
2021/06/16 05:10:58;;;;;;;14.25;6.00;;;;;;;18.38;66.56;96328.53;5012119;28;20050;-75
2021/06/16 05:13:26;;;;;;;11.40;6.03;;;;;;;18.45;64.99;96323.13;5011647;28;20049;-75
2021/06/16 05:15:54;;;;;;;9.30;5.38;;;;;;;18.49;65.00;96318.47;5012392;28;20093;-75
2021/06/16 05:18:21;;;;;;;10.73;6.50;;;;;;;18.58;65.20;96320.16;5011797;28;20045;-75
2021/06/16 05:20:48;;;;;;;11.27;6.40;;;;;;;18.67;64.95;96317.94;5011988;28;20038;-74
2021/06/16 05:23:14;;;;;;;12.13;6.43;;;;;;;18.74;64.56;96318.06;5011714;28;20054;-75
2021/06/16 05:25:47;;;;;;;10.00;5.53;;;;;;;18.79;62.84;96314.97;5012239;28;20045;-75
2021/06/16 05:28:13;;;;;;;10.10;5.70;;;;;;;18.86;62.75;96323.38;5011476;28;20092;-75
2021/06/16 05:30:40;;;;;;;11.90;5.75;;;;;;;18.90;60.20;96315.94;5011887;28;20049;-75
2021/06/16 05:33:06;;;;;;;8.52;5.47;;;;;;;18.96;61.86;96319.97;5011414;28;20045;-77
2021/06/16 05:35:33;;;;;;;10.60;5.18;;;;;;;19.03;58.43;96317.28;5011573;28;20050;-77
2021/06/16 05:38:00;;;;;;;7.72;4.72;;;;;;;19.08;57.09;96315.38;5012003;28;20044;-75
2021/06/16 05:40:27;;;;;;;11.02;4.65;;;;;;;19.09;57.85;96316.97;5011807;28;20038;-76
2021/06/16 05:42:55;;;;;;;7.93;4.50;;;;;;;19.12;56.33;96310.72;5011781;28;20053;-78
2021/06/16 05:45:21;;;;;;;10.23;4.57;;;;;;;19.19;56.40;96313.56;5011372;28;20075;-79
2021/06/16 05:47:48;;;;;;;10.05;5.30;;;;;;;19.24;59.48;96310.47;5011748;28;20411;-79
2021/06/16 05:50:15;;;;;;;10.63;5.28;;;;;;;19.28;58.71;96314.06;5011308;28;20409;-79
2021/06/16 05:52:42;;;;;;;8.52;5.55;;;;;;;19.32;59.23;96317.69;5011851;28;20072;-79
2021/06/16 05:55:09;;;;;;;11.90;6.35;;;;;;;19.35;59.42;96314.16;5011328;28;20042;-79
2021/06/16 05:57:36;;;;;;;11.30;5.90;;;;;;;19.44;60.94;96320.19;5011649;28;20133;-80
2021/06/16 06:00:04;;;;;;;8.30;5.10;;;;;;;19.53;60.92;96320.69;5011076;28;20451;-78
2021/06/16 06:02:31;;;;;;;10.45;5.82;;;;;;;19.61;61.33;96318.03;5011549;28;20133;-79
2021/06/16 06:04:57;;;;;;;13.10;5.15;;;;;;;19.64;58.90;96320.06;5011718;28;20046;-78
2021/06/16 06:07:24;;;;;;;12.35;5.20;;;;;;;19.69;60.29;96326.03;5010947;28;20053;-79
2021/06/16 06:09:50;;;;;;;8.43;5.40;;;;;;;19.74;59.37;96319.38;5011225;28;20404;-79
2021/06/16 06:12:17;;;;;;;9.98;5.80;;;;;;;19.79;59.88;96319.84;5010994;28;20064;-78
2021/06/16 06:14:43;;;;;;;10.50;5.55;;;;;;;19.90;60.58;96333.75;5009653;28;20053;-80
2021/06/16 06:17:12;;;;;;;7.28;4.57;;;;;;;20.00;59.63;96324.00;5010534;28;20551;-79
2021/06/16 06:19:39;;;;;;;9.40;5.25;;;;;;;20.06;57.85;96326.03;5009839;28;20045;-80
2021/06/16 06:22:05;;;;;;;11.82;4.90;;;;;;;20.14;58.07;96318.56;5010460;28;20052;-79
2021/06/16 06:24:32;;;;;;;9.35;4.93;;;;;;;20.20;58.64;96324.56;5011049;28;20049;-79
2021/06/16 06:26:59;;;;;;;10.50;4.75;;;;;;;20.27;58.00;96319.09;5012118;28;20049;-79
2021/06/16 06:29:26;;;;;;;10.77;4.72;;;;;;;20.36;57.66;96321.53;5010917;28;20046;-79
2021/06/16 06:31:53;;;;;;;5.97;4.30;;;;;;;20.46;57.77;96321.66;5010670;28;20048;-79
2021/06/16 06:34:21;;;;;;;6.40;4.05;;;;;;;20.51;56.10;96318.53;5011223;28;20046;-79
2021/06/16 06:36:47;;;;;;;8.30;4.10;;;;;;;20.67;56.76;96320.22;5011741;28;20049;-79
2021/06/16 06:39:15;;;;;;;11.77;4.78;;;;;;;20.79;54.91;96317.16;5010971;28;20042;-80
2021/06/16 06:41:42;;;;;;;12.38;4.32;;;;;;;20.88;54.54;96314.84;5011385;28;20481;-78
2021/06/16 06:44:09;;;;;;;8.95;4.53;;;;;;;20.94;55.58;96310.53;5011392;28;20046;-79
2021/06/16 06:46:35;;;;;;;6.88;4.47;;;;;;;21.00;55.76;96311.75;5011818;28;20049;-79
2021/06/16 06:49:02;;;;;;;8.73;4.00;;;;;;;21.09;55.62;96314.97;5011323;28;20053;-76
2021/06/16 06:51:30;;;;;;;7.05;4.07;;;;;;;21.20;55.44;96308.72;5011229;28;20046;-78
2021/06/16 06:53:56;;;;;;;5.63;3.58;;;;;;;21.32;55.51;96300.09;5011362;28;20042;-79
2021/06/16 06:56:23;;;;;;;5.18;3.50;;;;;;;21.43;56.75;96306.44;4993349;28;20045;-80
2021/06/16 06:58:50;;;;;;;6.70;4.43;;;;;;;21.56;54.61;96310.47;5006104;28;20043;-79
2021/06/16 07:01:16;;;;;;;7.97;3.50;;;;;;;21.63;51.93;96304.94;4991146;28;20051;-79
2021/06/16 07:03:43;;;;;;;7.00;3.67;;;;;;;21.68;50.81;96302.97;4991524;28;20058;-78
2021/06/16 07:06:10;;;;;;;7.30;3.78;;;;;;;21.76;51.11;96301.81;4990134;28;20042;-80
2021/06/16 07:08:40;;;;;;;5.45;3.30;;;;;;;21.86;48.07;96301.03;5010895;28;20129;-79
2021/06/16 07:11:09;;;;;;;5.22;2.97;;;;;;;21.97;46.54;96307.38;5010824;28;20065;-77
2021/06/16 07:13:36;;;;;;;6.82;3.05;;;;;;;22.07;46.47;96306.63;5011189;28;20046;-80
2021/06/16 07:16:03;;;;;;;6.28;2.95;;;;;;;22.11;46.70;96304.69;5010497;28;20054;-81
2021/06/16 07:18:30;;;;;;;6.55;3.00;;;;;;;22.16;46.60;96297.94;5011139;28;20046;-80
2021/06/16 07:20:57;;;;;;;4.70;2.88;;;;;;;22.28;47.70;96294.00;5011243;28;20041;-78
2021/06/16 07:23:24;;;;;;;5.70;2.65;;;;;;;22.38;47.65;96298.75;5010821;28;20400;-79
2021/06/16 07:25:52;;;;;;;5.38;3.20;;;;;;;22.43;46.72;96294.78;5011945;28;20050;-79
2021/06/16 07:28:19;;;;;;;9.45;3.53;;;;;;;22.47;48.18;96296.38;5013937;28;20080;-79
2021/06/16 07:30:48;;;;;;;5.80;3.05;;;;;;;22.57;45.73;96295.59;5014370;28;20057;-79
2021/06/16 07:33:16;;;;;;;5.18;3.40;;;;;;;22.65;46.83;96286.03;5014055;28;20041;-82
2021/06/16 07:39:45;;;;;;;6.55;3.42;;;;;;;22.77;48.55;96286.84;5013973;28;20121;-81
2021/06/16 07:42:13;;;;;;;8.95;2.78;;;;;;;22.87;48.62;96281.28;5012900;28;20050;-81
2021/06/16 07:44:40;;;;;;;7.63;3.65;;;;;;;22.98;46.29;96281.28;5014275;28;20053;-81
2021/06/16 07:47:06;;;;;;;5.72;2.88;;;;;;;23.06;48.22;96285.59;5013683;28;20045;-81
2021/06/16 07:49:33;;;;;;;7.43;3.75;;;;;;;23.17;50.55;96282.78;5014349;28;20046;-78
2021/06/16 07:52:00;;;;;;;4.50;2.97;;;;;;;23.28;49.66;96293.84;5014180;28;20038;-79
2021/06/16 07:54:26;;;;;;;5.32;3.67;;;;;;;23.38;48.05;96288.25;5013788;28;20050;-79
2021/06/16 07:56:52;;;;;;;9.23;3.40;;;;;;;23.47;47.81;96290.63;5014146;28;20045;-79
2021/06/16 07:59:20;;;;;;;7.22;3.40;;;;;;;23.53;47.79;96288.22;5004444;28;20058;-80
2021/06/16 08:01:48;;;;;;;6.20;3.42;;;;;;;23.68;48.21;96284.97;4994580;28;20049;-79
2021/06/16 08:04:14;;;;;;;7.25;3.80;;;;;;;23.79;47.59;96279.38;4976949;28;20074;-79
2021/06/16 08:06:41;;;;;;;5.93;3.42;;;;;;;23.95;47.06;96285.22;4994233;28;20046;-79
2021/06/16 08:09:08;;;;;;;7.03;3.60;;;;;;;24.20;50.41;96287.84;4994191;28;20068;-79
2021/06/16 08:11:34;;;;;;;6.10;3.25;;;;;;;24.38;48.04;96286.94;5005005;28;20045;-80
2021/06/16 08:14:01;;;;;;;5.55;3.58;;;;;;;24.69;47.94;96291.47;5013893;28;20057;-78
2021/06/16 08:16:29;;;;;;;8.05;3.15;;;;;;;25.57;43.98;96288.13;5013468;28;20045;-80
2021/06/16 08:18:55;;;;;;;4.25;2.75;;;;;;;26.78;41.54;96291.94;5013808;28;20057;-79
2021/06/16 08:21:21;;;;;;;5.32;3.13;;;;;;;27.96;40.38;96283.25;5013157;28;20045;-80
2021/06/16 08:23:48;;;;;;;4.65;2.60;;;;;;;28.94;37.30;96284.13;5013486;28;20497;-79
2021/06/16 08:26:16;;;;;;;8.65;2.90;;;;;;;29.58;34.48;96284.41;5012866;28;20065;-78
2021/06/16 08:28:43;;;;;;;8.00;3.10;;;;;;;29.94;33.31;96275.72;5013448;28;20527;-79
2021/06/16 08:31:10;;;;;;;5.53;3.20;;;;;;;29.88;34.24;96281.09;5012585;28;20041;-79
2021/06/16 08:33:39;;;;;;;4.78;2.78;;;;;;;29.59;33.28;96280.34;5013199;28;20046;-79
2021/06/16 08:36:06;;;;;;;4.85;2.78;;;;;;;30.07;31.29;96273.72;5012848;28;20042;-81
2021/06/16 08:38:33;;;;;;;5.80;2.65;;;;;;;30.69;31.82;96278.97;5012569;28;20049;-80
2021/06/16 08:41:04;;;;;;;6.15;3.30;;;;;;;31.15;32.56;96276.63;5013097;28;20045;-81
2021/06/16 08:43:37;;;;;;;6.40;2.85;;;;;;;31.70;32.90;96262.97;5013265;28;20053;-81
2021/06/16 08:46:06;;;;;;;5.93;3.28;;;;;;;31.98;30.09;96272.38;5013143;28;20070;-80
2021/06/16 08:48:32;;;;;;;5.88;3.10;;;;;;;32.12;29.85;96271.06;5013119;28;20408;-82
2021/06/16 08:51:00;;;;;;;5.05;2.78;;;;;;;32.09;30.43;96269.16;5013276;28;20053;-81
2021/06/16 08:53:27;;;;;;;6.25;2.58;;;;;;;32.04;28.52;96269.75;5013103;28;20057;-81
2021/06/16 08:55:53;;;;;;;4.68;2.58;;;;;;;31.97;29.57;96267.22;5012868;28;20682;-82
2021/06/16 08:58:20;;;;;;;6.30;3.28;;;;;;;31.85;31.13;96266.06;5012325;28;20045;-81
2021/06/16 09:00:46;;;;;;;7.40;3.13;;;;;;;31.54;30.33;96257.56;5012836;28;20381;-81
2021/06/16 09:03:12;;;;;;;5.75;3.20;;;;;;;31.35;32.13;96251.81;5012425;28;20089;-81
2021/06/16 09:05:40;;;;;;;6.50;2.90;;;;;;;31.05;29.72;96256.06;5012777;28;20504;-81
2021/06/16 09:08:20;;;;;;;6.20;2.70;;;;;;;30.84;31.07;96263.22;5012411;28;20511;-80
2021/06/16 09:10:48;;;;;;;4.47;2.45;;;;;;;30.66;29.84;96257.41;5012858;28;20074;-81
2021/06/16 09:13:26;;;;;;;9.48;3.05;;;;;;;30.71;30.67;96270.91;5012863;28;20046;-81
2021/06/16 09:15:53;;;;;;;6.13;2.90;;;;;;;30.67;30.54;96270.19;5023889;28;20049;-81
2021/06/16 09:18:19;;;;;;;5.28;2.92;;;;;;;30.53;28.29;96265.84;5032038;28;20054;-81
2021/06/16 09:20:48;;;;;;;6.28;2.70;;;;;;;30.26;33.21;96252.28;5032419;28;20068;-81
2021/06/16 09:23:23;;;;;;;6.75;2.63;;;;;;;30.04;30.81;96257.75;5032052;28;20050;-81
2021/06/16 09:26:10;;;;;;;6.10;2.92;;;;;;;29.83;31.68;96255.59;5032552;28;20550;-82
2021/06/16 09:28:38;;;;;;;4.22;2.60;;;;;;;29.64;29.52;96258.16;5029790;28;20084;-82
2021/06/16 09:31:05;;;;;;;4.75;2.78;;;;;;;29.54;32.48;96258.47;5012859;28;20133;-82
2021/06/16 09:33:33;;;;;;;5.03;2.67;;;;;;;29.50;33.19;96257.78;5014041;28;20045;-81
2021/06/16 09:35:59;;;;;;;8.25;2.90;;;;;;;29.56;34.17;96261.63;5013300;28;20046;-82
2021/06/16 09:38:31;;;;;;;6.85;3.05;;;;;;;29.65;35.61;96253.31;5012731;28;20053;-81
2021/06/16 09:40:58;;;;;;;4.05;2.70;;;;;;;29.65;32.19;96258.94;5013010;28;20096;-81
2021/06/16 09:43:27;;;;;;;4.70;2.35;;;;;;;29.55;34.71;96258.03;5012078;28;20692;-81
2021/06/16 09:45:57;;;;;;;4.72;2.60;;;;;;;29.54;33.50;96258.47;5012994;28;20124;-81
2021/06/16 09:48:34;;;;;;;4.28;2.63;;;;;;;29.48;30.23;96257.41;5011920;28;20045;-81
2021/06/16 09:51:17;;;;;;;7.68;3.00;;;;;;;29.47;32.75;96258.66;5012377;28;20045;-80
2021/06/16 09:54:13;;;;;;;6.53;2.50;;;;;;;29.47;34.71;96255.84;5012842;28;20042;-81
2021/06/16 09:56:42;;;;;;;9.63;2.80;;;;;;;29.53;31.72;96259.66;4999767;28;20049;-82
2021/06/16 09:59:08;;;;;;;5.78;2.97;;;;;;;29.57;32.36;96254.78;5012207;28;20489;-82
2021/06/16 10:01:59;;;;;;;4.57;2.47;;;;;;;29.59;31.17;96258.69;5012601;28;20048;-81
2021/06/16 10:04:39;;;;;;;7.03;2.55;;;;;;;29.65;29.48;96256.13;4997648;28;20049;-81
2021/06/16 10:07:10;;;;;;;4.95;2.58;;;;;;;29.71;31.09;96245.94;5012472;28;20046;-82
2021/06/16 10:09:38;;;;;;;5.28;2.67;;;;;;;29.74;31.19;96244.25;5012758;28;20073;-82
2021/06/16 10:12:06;;;;;;;5.88;2.60;;;;;;;29.77;29.36;96244.16;5011291;28;20164;-81
2021/06/16 10:14:32;;;;;;;6.95;2.47;;;;;;;29.72;32.12;96239.09;5012088;28;20052;-81
2021/06/16 10:16:59;;;;;;;5.00;2.65;;;;;;;29.76;31.39;96236.97;5012091;28;20416;-81
2021/06/16 10:19:26;;;;;;;4.60;2.90;;;;;;;29.87;32.12;96240.22;5011679;28;20046;-82
2021/06/16 10:21:53;;;;;;;6.60;2.40;;;;;;;29.90;31.91;96241.34;5012374;28;20057;-81
2021/06/16 10:24:19;;;;;;;7.78;2.80;;;;;;;29.86;33.79;96235.84;5012205;28;20058;-82
2021/06/16 10:26:53;;;;;;;8.32;2.63;;;;;;;29.93;32.33;96234.06;5012445;28;20065;-82
2021/06/16 10:29:20;;;;;;;4.97;2.97;;;;;;;29.86;29.08;96235.84;5011853;28;20053;-81
2021/06/16 10:31:47;;;;;;;5.38;2.53;;;;;;;29.81;31.88;96232.78;5011802;28;20049;-81
2021/06/16 10:34:14;;;;;;;5.10;2.70;;;;;;;29.76;31.34;96224.97;5011418;28;20053;-82
2021/06/16 10:37:03;;;;;;;5.18;2.35;;;;;;;29.81;32.06;96235.59;5011850;28;20072;-81
2021/06/16 10:39:29;;;;;;;3.78;2.20;;;;;;;29.81;34.42;96232.78;5011963;28;20045;-82
2021/06/16 10:42:00;;;;;;;4.32;2.58;;;;;;;29.61;29.58;96236.59;5011501;28;20057;-82
2021/06/16 10:44:30;;;;;;;5.38;2.72;;;;;;;29.60;31.25;96237.03;5011439;28;20744;-82
2021/06/16 10:46:59;;;;;;;5.65;2.70;;;;;;;29.63;32.40;96227.72;5011713;28;20049;-82
2021/06/16 10:49:53;;;;;;;6.72;2.67;;;;;;;29.69;30.07;96231.56;5011219;28;20050;-82
2021/06/16 10:52:22;;;;;;;6.13;2.10;;;;;;;29.71;30.61;96233.94;5010872;28;20455;-81
2021/06/16 10:54:57;;;;;;;5.30;2.35;;;;;;;29.69;29.96;96225.94;5011709;28;20127;-82
2021/06/16 10:57:25;;;;;;;5.72;2.65;;;;;;;29.74;31.63;96228.19;5011213;28;20515;-82
2021/06/16 11:00:16;;;;;;;5.05;2.05;;;;;;;29.77;30.46;96232.13;5011617;28;20409;-82
2021/06/16 11:03:06;;;;;;;9.10;3.08;;;;;;;29.82;28.79;96234.38;5015110;28;20123;-82
2021/06/16 11:05:44;;;;;;;4.97;2.40;;;;;;;29.69;29.99;96225.94;5015236;28;20138;-82
2021/06/16 11:08:14;;;;;;;6.78;2.53;;;;;;;29.63;30.17;96219.31;5015122;28;20046;-81
2021/06/16 11:10:57;;;;;;;5.30;2.83;;;;;;;29.65;30.23;96225.25;5015651;28;20045;-82
2021/06/16 11:13:44;;;;;;;5.30;2.72;;;;;;;29.73;32.66;96217.44;5015285;28;20056;-82
2021/06/16 11:16:39;;;;;;;15.65;3.75;;;;;;;29.77;31.61;96216.09;5015502;28;20046;-82
2021/06/16 11:19:37;;;;;;;6.25;2.90;;;;;;;29.59;28.31;96210.22;5015441;28;20508;-81
2021/06/16 11:22:05;;;;;;;6.22;2.55;;;;;;;29.55;30.09;96210.34;5014883;28;20488;-81
2021/06/16 11:25:01;;;;;;;10.27;2.80;;;;;;;29.62;31.98;96214.94;5015246;28;20507;-82
2021/06/16 11:28:07;;;;;;;7.05;2.83;;;;;;;29.65;31.04;96214.03;5015491;28;20114;-82
2021/06/16 11:30:40;;;;;;;5.65;2.70;;;;;;;29.62;30.37;96209.34;5017919;28;20049;-82
2021/06/16 11:33:27;;;;;;;4.90;2.67;;;;;;;29.61;32.61;96204.97;5015820;28;20052;-79
2021/06/16 11:35:58;;;;;;;6.28;2.50;;;;;;;29.61;30.35;96214.16;5015704;28;20129;-81
2021/06/16 11:38:30;;;;;;;4.43;2.40;;;;;;;29.60;30.69;96190.16;5015119;28;20404;-81
2021/06/16 11:40:59;;;;;;;4.07;2.33;;;;;;;29.57;28.50;96195.88;5015528;28;20480;-82
2021/06/16 11:43:33;;;;;;;4.90;2.60;;;;;;;29.57;31.01;96195.88;5014626;28;20045;-83
2021/06/16 11:46:04;;;;;;;4.00;2.30;;;;;;;29.54;29.73;96196.75;4997297;28;20432;-81